sensor_id;sensor_type;location;lat;lon;timestamp;pressure;altitude;pressure_sealevel;temperature;humidity
9129;BME280;4599;50.906;6.786;2022-10-31T00:00:25;76817.88;;;-142.83;77.70
9129;BME280;4599;50.906;6.786;2022-10-31T00:04:27;76822.03;;;-142.83;78.42
9129;BME280;4599;50.906;6.786;2022-10-31T00:08:30;76828.25;;;-142.83;78.82
9129;BME280;4599;50.906;6.786;2022-10-31T00:12:31;76834.50;;;-142.83;79.18
9129;BME280;4599;50.906;6.786;2022-10-31T00:16:33;76838.66;;;-142.83;78.95
9129;BME280;4599;50.906;6.786;2022-10-31T00:20:34;76838.66;;;-142.83;78.96
9129;BME280;4599;50.906;6.786;2022-10-31T00:24:37;76822.03;;;-142.83;79.27
9129;BME280;4599;50.906;6.786;2022-10-31T00:28:39;76838.66;;;-142.83;79.31
9129;BME280;4599;50.906;6.786;2022-10-31T00:32:40;76838.66;;;-142.83;79.51
9129;BME280;4599;50.906;6.786;2022-10-31T00:36:42;76838.66;;;-142.83;79.90
9129;BME280;4599;50.906;6.786;2022-10-31T00:40:44;76834.50;;;-142.83;78.12
9129;BME280;4599;50.906;6.786;2022-10-31T00:44:46;76851.09;;;-142.83;79.57
9129;BME280;4599;50.906;6.786;2022-10-31T00:48:47;76867.72;;;-142.83;79.70
9129;BME280;4599;50.906;6.786;2022-10-31T00:52:49;76855.25;;;-142.83;79.89
9129;BME280;4599;50.906;6.786;2022-10-31T00:56:52;76851.09;;;-142.83;79.31
9129;BME280;4599;50.906;6.786;2022-10-31T01:00:53;76855.25;;;-142.83;79.17
9129;BME280;4599;50.906;6.786;2022-10-31T01:04:55;76851.09;;;-142.83;79.76
9129;BME280;4599;50.906;6.786;2022-10-31T01:08:56;76849.03;;;-142.83;79.68
9129;BME280;4599;50.906;6.786;2022-10-31T01:12:59;76836.56;;;-142.83;79.19
9129;BME280;4599;50.906;6.786;2022-10-31T01:17:01;76853.19;;;-142.83;80.47
9129;BME280;4599;50.906;6.786;2022-10-31T01:21:04;76846.97;;;-142.83;80.77
9129;BME280;4599;50.906;6.786;2022-10-31T01:25:08;76836.56;;;-142.83;80.32
9129;BME280;4599;50.906;6.786;2022-10-31T01:29:11;76834.50;;;-142.83;79.17
9129;BME280;4599;50.906;6.786;2022-10-31T01:33:12;76828.25;;;-142.83;80.26
9129;BME280;4599;50.906;6.786;2022-10-31T01:37:14;76830.34;;;-142.83;80.26
9129;BME280;4599;50.906;6.786;2022-10-31T01:41:17;76830.34;;;-142.83;79.88
9129;BME280;4599;50.906;6.786;2022-10-31T01:45:20;76838.66;;;-142.83;80.29
9129;BME280;4599;50.906;6.786;2022-10-31T01:49:31;76855.25;;;-142.83;80.37
9129;BME280;4599;50.906;6.786;2022-10-31T01:53:35;76853.19;;;-142.83;80.77
9129;BME280;4599;50.906;6.786;2022-10-31T01:57:40;76844.88;;;-142.83;80.45
9129;BME280;4599;50.906;6.786;2022-10-31T02:01:45;76853.19;;;-142.83;81.04
9129;BME280;4599;50.906;6.786;2022-10-31T02:05:48;76873.94;;;-142.83;80.73
9129;BME280;4599;50.906;6.786;2022-10-31T02:09:51;76869.78;;;-142.83;81.03
9129;BME280;4599;50.906;6.786;2022-10-31T02:13:54;76880.19;;;-142.83;80.93
9129;BME280;4599;50.906;6.786;2022-10-31T02:17:58;76882.25;;;-142.83;81.44
9129;BME280;4599;50.906;6.786;2022-10-31T02:22:06;76896.78;;;-142.83;81.56
9129;BME280;4599;50.906;6.786;2022-10-31T02:26:26;76905.09;;;-142.83;82.04
9129;BME280;4599;50.906;6.786;2022-10-31T02:30:36;76903.03;;;-142.83;81.71
9129;BME280;4599;50.906;6.786;2022-10-31T02:34:47;76905.09;;;-142.83;82.37
9129;BME280;4599;50.906;6.786;2022-10-31T02:39:08;76923.78;;;-142.83;82.52
9129;BME280;4599;50.906;6.786;2022-10-31T02:43:16;76923.78;;;-142.83;82.14
9129;BME280;4599;50.906;6.786;2022-10-31T02:47:22;76925.88;;;-142.83;82.52
9129;BME280;4599;50.906;6.786;2022-10-31T02:51:27;76921.72;;;-142.83;82.75
9129;BME280;4599;50.906;6.786;2022-10-31T02:55:47;76930.00;;;-142.83;82.24
9129;BME280;4599;50.906;6.786;2022-10-31T02:59:54;76938.31;;;-142.83;83.01
9129;BME280;4599;50.906;6.786;2022-10-31T03:04:06;76942.47;;;-142.83;83.28
9129;BME280;4599;50.906;6.786;2022-10-31T03:08:21;76948.69;;;-142.83;83.87
9129;BME280;4599;50.906;6.786;2022-10-31T03:12:27;76946.63;;;-142.83;82.97
9129;BME280;4599;50.906;6.786;2022-10-31T03:16:36;76948.69;;;-142.83;83.01
9129;BME280;4599;50.906;6.786;2022-10-31T03:20:44;76950.78;;;-142.83;83.68
9129;BME280;4599;50.906;6.786;2022-10-31T03:24:49;76954.94;;;-142.83;84.06
9129;BME280;4599;50.906;6.786;2022-10-31T03:28:55;76936.25;;;-142.83;83.31
9129;BME280;4599;50.906;6.786;2022-10-31T03:33:00;76942.47;;;-142.83;82.96
9129;BME280;4599;50.906;6.786;2022-10-31T03:37:07;76944.56;;;-142.83;83.78
9129;BME280;4599;50.906;6.786;2022-10-31T03:41:16;76959.09;;;-142.83;83.68
9129;BME280;4599;50.906;6.786;2022-10-31T03:45:23;76959.09;;;-142.83;84.38
9129;BME280;4599;50.906;6.786;2022-10-31T03:49:26;76963.25;;;-142.83;84.39
9129;BME280;4599;50.906;6.786;2022-10-31T03:53:32;76961.16;;;-142.83;83.80
9129;BME280;4599;50.906;6.786;2022-10-31T03:57:39;76957.00;;;-142.83;83.85
9129;BME280;4599;50.906;6.786;2022-10-31T04:01:46;76969.47;;;-142.83;84.00
9129;BME280;4599;50.906;6.786;2022-10-31T04:05:53;76971.53;;;-142.83;84.13
9129;BME280;4599;50.906;6.786;2022-10-31T04:09:57;76975.69;;;-142.83;84.41
9129;BME280;4599;50.906;6.786;2022-10-31T04:14:02;76969.47;;;-142.83;84.78
9129;BME280;4599;50.906;6.786;2022-10-31T04:18:06;76957.00;;;-142.83;85.25
9129;BME280;4599;50.906;6.786;2022-10-31T04:22:07;76940.41;;;-142.83;85.34
9129;BME280;4599;50.906;6.786;2022-10-31T04:26:10;76932.09;;;-142.83;85.46
9129;BME280;4599;50.906;6.786;2022-10-31T04:30:14;76921.72;;;-142.83;85.93
9129;BME280;4599;50.906;6.786;2022-10-31T04:34:17;76898.88;;;-142.83;84.83
9129;BME280;4599;50.906;6.786;2022-10-31T04:38:18;76896.78;;;-142.83;84.99
9129;BME280;4599;50.906;6.786;2022-10-31T04:42:20;76903.03;;;-142.83;85.10
9129;BME280;4599;50.906;6.786;2022-10-31T04:46:23;76886.41;;;-142.83;83.70
9129;BME280;4599;50.906;6.786;2022-10-31T04:50:24;76880.19;;;-142.83;83.52
9129;BME280;4599;50.906;6.786;2022-10-31T04:54:26;76880.19;;;-142.83;82.93
9129;BME280;4599;50.906;6.786;2022-10-31T04:58:27;76869.78;;;-142.83;82.92
9129;BME280;4599;50.906;6.786;2022-10-31T05:02:30;76880.19;;;-142.83;83.15
9129;BME280;4599;50.906;6.786;2022-10-31T05:06:33;76892.63;;;-142.83;83.24
9129;BME280;4599;50.906;6.786;2022-10-31T05:10:35;76884.34;;;-142.83;82.94
9129;BME280;4599;50.906;6.786;2022-10-31T05:14:36;76886.41;;;-142.83;83.22
9129;BME280;4599;50.906;6.786;2022-10-31T05:18:40;76880.19;;;-142.83;82.91
9129;BME280;4599;50.906;6.786;2022-10-31T05:22:42;76905.09;;;-142.83;83.40
9129;BME280;4599;50.906;6.786;2022-10-31T05:26:43;76905.09;;;-142.83;83.40
9129;BME280;4599;50.906;6.786;2022-10-31T05:30:47;76892.63;;;-142.83;82.96
9129;BME280;4599;50.906;6.786;2022-10-31T05:34:52;76909.25;;;-142.83;83.66
9129;BME280;4599;50.906;6.786;2022-10-31T05:38:54;76925.88;;;-142.83;83.38
9129;BME280;4599;50.906;6.786;2022-10-31T05:42:56;76942.47;;;-142.83;84.08
9129;BME280;4599;50.906;6.786;2022-10-31T05:46:58;76938.31;;;-142.83;84.00
9129;BME280;4599;50.906;6.786;2022-10-31T05:51:01;76954.94;;;-142.83;84.22
9129;BME280;4599;50.906;6.786;2022-10-31T05:55:03;76954.94;;;-142.83;84.54
9129;BME280;4599;50.906;6.786;2022-10-31T05:59:05;76954.94;;;-142.83;84.85
9129;BME280;4599;50.906;6.786;2022-10-31T06:03:08;76954.94;;;-142.83;85.31
9129;BME280;4599;50.906;6.786;2022-10-31T06:07:16;76957.00;;;-142.83;84.49
9129;BME280;4599;50.906;6.786;2022-10-31T06:11:17;76965.31;;;-142.83;85.04
9129;BME280;4599;50.906;6.786;2022-10-31T06:15:19;76967.38;;;-142.83;85.22
9129;BME280;4599;50.906;6.786;2022-10-31T06:19:24;76961.16;;;-142.83;85.48
9129;BME280;4599;50.906;6.786;2022-10-31T06:23:27;76971.53;;;-142.83;85.57
9129;BME280;4599;50.906;6.786;2022-10-31T06:27:29;76965.31;;;-142.83;85.70
9129;BME280;4599;50.906;6.786;2022-10-31T06:31:30;76971.53;;;-142.83;85.39
9129;BME280;4599;50.906;6.786;2022-10-31T06:35:32;76963.25;;;-142.83;85.05
9129;BME280;4599;50.906;6.786;2022-10-31T06:39:35;76936.25;;;-142.83;85.91
9129;BME280;4599;50.906;6.786;2022-10-31T06:43:37;76934.16;;;-142.83;84.98
9129;BME280;4599;50.906;6.786;2022-10-31T06:47:38;76905.09;;;-142.83;84.78
9129;BME280;4599;50.906;6.786;2022-10-31T06:51:59;76911.31;;;-142.83;85.05
9129;BME280;4599;50.906;6.786;2022-10-31T06:56:03;76900.94;;;-142.83;84.61
9129;BME280;4599;50.906;6.786;2022-10-31T07:00:05;76890.56;;;-142.83;84.68
9129;BME280;4599;50.906;6.786;2022-10-31T07:04:08;76861.50;;;-142.83;83.50
9129;BME280;4599;50.906;6.786;2022-10-31T07:08:11;76855.25;;;-142.83;82.52
9129;BME280;4599;50.906;6.786;2022-10-31T07:12:15;76886.41;;;-142.83;82.91
9129;BME280;4599;50.906;6.786;2022-10-31T07:16:16;76896.78;;;-142.83;83.75
9129;BME280;4599;50.906;6.786;2022-10-31T07:20:18;76896.78;;;-142.83;84.36
9129;BME280;4599;50.906;6.786;2022-10-31T07:24:20;76894.72;;;-142.83;84.03
9129;BME280;4599;50.906;6.786;2022-10-31T07:28:23;76890.56;;;-142.83;84.50
9129;BME280;4599;50.906;6.786;2022-10-31T07:32:25;76880.19;;;-142.83;83.10
9129;BME280;4599;50.906;6.786;2022-10-31T07:36:27;76869.78;;;-142.83;83.13
9129;BME280;4599;50.906;6.786;2022-10-31T07:40:28;76855.25;;;-142.83;82.48
9129;BME280;4599;50.906;6.786;2022-10-31T07:44:31;76855.25;;;-142.83;81.82
9129;BME280;4599;50.906;6.786;2022-10-31T07:48:32;76857.34;;;-142.83;82.54
9129;BME280;4599;50.906;6.786;2022-10-31T07:52:34;76859.41;;;-142.83;82.40
9129;BME280;4599;50.906;6.786;2022-10-31T07:56:35;76853.19;;;-142.83;82.31
9129;BME280;4599;50.906;6.786;2022-10-31T08:00:40;76830.34;;;-142.83;82.52
9129;BME280;4599;50.906;6.786;2022-10-31T08:04:42;76824.13;;;-142.83;81.17
9129;BME280;4599;50.906;6.786;2022-10-31T08:08:44;76830.34;;;-142.83;80.93
9129;BME280;4599;50.906;6.786;2022-10-31T08:12:45;76828.25;;;-142.83;80.72
9129;BME280;4599;50.906;6.786;2022-10-31T08:16:48;76828.25;;;-142.83;80.86
9129;BME280;4599;50.906;6.786;2022-10-31T08:20:49;76822.03;;;-142.83;80.91
9129;BME280;4599;50.906;6.786;2022-10-31T08:24:51;76817.88;;;-142.83;79.65
9129;BME280;4599;50.906;6.786;2022-10-31T08:28:52;76830.34;;;-142.83;80.52
9129;BME280;4599;50.906;6.786;2022-10-31T08:32:59;76846.97;;;-142.83;80.83
9129;BME280;4599;50.906;6.786;2022-10-31T08:37:01;76817.88;;;-142.83;80.74
9129;BME280;4599;50.906;6.786;2022-10-31T08:41:03;76786.75;;;-142.83;79.62
9129;BME280;4599;50.906;6.786;2022-10-31T08:45:04;76770.13;;;-142.83;79.74
9129;BME280;4599;50.906;6.786;2022-10-31T08:49:07;76759.75;;;-142.83;78.67
9129;BME280;4599;50.906;6.786;2022-10-31T08:53:11;76743.13;;;-142.83;78.41
9129;BME280;4599;50.906;6.786;2022-10-31T08:57:13;76730.69;;;-142.83;77.47
9129;BME280;4599;50.906;6.786;2022-10-31T09:01:14;76714.06;;;-142.83;77.99
9129;BME280;4599;50.906;6.786;2022-10-31T09:05:17;76703.69;;;-142.83;76.85
9129;BME280;4599;50.906;6.786;2022-10-31T09:09:19;76664.22;;;-142.83;75.63
9129;BME280;4599;50.906;6.786;2022-10-31T09:13:21;76643.47;;;-142.83;75.56
9129;BME280;4599;50.906;6.786;2022-10-31T09:17:26;76653.84;;;-142.83;76.14
9129;BME280;4599;50.906;6.786;2022-10-31T09:21:29;76639.31;;;-142.83;75.69
9129;BME280;4599;50.906;6.786;2022-10-31T09:25:31;76645.53;;;-142.83;75.65
9129;BME280;4599;50.906;6.786;2022-10-31T09:29:33;76616.47;;;-142.83;75.27
9129;BME280;4599;50.906;6.786;2022-10-31T09:33:35;76587.41;;;-142.83;74.07
9129;BME280;4599;50.906;6.786;2022-10-31T09:37:38;76554.19;;;-142.83;73.34
9129;BME280;4599;50.906;6.786;2022-10-31T09:42:02;76537.56;;;-142.83;73.36
9129;BME280;4599;50.906;6.786;2022-10-31T09:46:11;76477.34;;;-142.83;72.30
9129;BME280;4599;50.906;6.786;2022-10-31T09:50:19;76458.66;;;-142.83;71.49
9129;BME280;4599;50.906;6.786;2022-10-31T09:54:27;76435.84;;;-142.83;70.68
9129;BME280;4599;50.906;6.786;2022-10-31T09:58:35;76446.22;;;-142.83;70.68
9129;BME280;4599;50.906;6.786;2022-10-31T10:02:42;76423.38;;;-142.83;70.73
9129;BME280;4599;50.906;6.786;2022-10-31T10:06:47;76377.69;;;-142.83;69.99
9129;BME280;4599;50.906;6.786;2022-10-31T10:10:55;76290.50;;;-142.83;66.95
9129;BME280;4599;50.906;6.786;2022-10-31T10:15:31;76273.88;;;-142.83;67.01
9129;BME280;4599;50.906;6.786;2022-10-31T10:19:53;76213.69;;;-142.83;64.46
9129;BME280;4599;50.906;6.786;2022-10-31T10:24:08;76244.81;;;-142.83;65.46
9129;BME280;4599;50.906;6.786;2022-10-31T10:28:19;76296.72;;;-142.83;67.01
9129;BME280;4599;50.906;6.786;2022-10-31T10:32:24;76232.38;;;-142.83;65.33
9129;BME280;4599;50.906;6.786;2022-10-31T10:36:32;76188.75;;;-142.83;64.58
9129;BME280;4599;50.906;6.786;2022-10-31T10:40:34;76199.16;;;-142.83;64.41
9129;BME280;4599;50.906;6.786;2022-10-31T10:44:40;76188.75;;;-142.83;63.17
9129;BME280;4599;50.906;6.786;2022-10-31T10:48:44;76159.69;;;-142.83;63.37
9129;BME280;4599;50.906;6.786;2022-10-31T10:52:51;76157.63;;;-142.83;63.69
9129;BME280;4599;50.906;6.786;2022-10-31T10:57:00;76174.22;;;-142.83;64.25
9129;BME280;4599;50.906;6.786;2022-10-31T11:01:11;76170.06;;;-142.83;64.36
9129;BME280;4599;50.906;6.786;2022-10-31T11:05:20;76163.84;;;-142.83;63.76
9129;BME280;4599;50.906;6.786;2022-10-31T11:09:23;76111.94;;;-142.83;62.61
9129;BME280;4599;50.906;6.786;2022-10-31T11:13:25;76099.50;;;-142.83;62.75
9129;BME280;4599;50.906;6.786;2022-10-31T11:17:31;76033.06;;;-142.83;60.37
9129;BME280;4599;50.906;6.786;2022-10-31T11:21:33;76012.28;;;-142.83;60.27
9129;BME280;4599;50.906;6.786;2022-10-31T11:25:35;76043.44;;;-142.83;59.34
9129;BME280;4599;50.906;6.786;2022-10-31T11:29:37;76039.28;;;-142.83;59.76
9129;BME280;4599;50.906;6.786;2022-10-31T11:33:45;76014.38;;;-142.83;59.61
9129;BME280;4599;50.906;6.786;2022-10-31T11:37:49;76018.53;;;-142.83;59.48
9129;BME280;4599;50.906;6.786;2022-10-31T11:41:52;75997.75;;;-142.83;58.20
9129;BME280;4599;50.906;6.786;2022-10-31T11:45:56;75987.38;;;-142.83;59.67
9129;BME280;4599;50.906;6.786;2022-10-31T11:50:01;75966.63;;;-142.83;58.75
9129;BME280;4599;50.906;6.786;2022-10-31T11:54:04;75954.16;;;-142.83;58.30
9129;BME280;4599;50.906;6.786;2022-10-31T11:58:20;75925.09;;;-142.83;58.12
9129;BME280;4599;50.906;6.786;2022-10-31T12:02:22;75958.31;;;-142.83;58.38
9129;BME280;4599;50.906;6.786;2022-10-31T12:06:28;75954.16;;;-142.83;58.67
9129;BME280;4599;50.906;6.786;2022-10-31T12:10:38;75995.69;;;-142.83;59.24
9129;BME280;4599;50.906;6.786;2022-10-31T12:14:51;75999.84;;;-142.83;59.92
9129;BME280;4599;50.906;6.786;2022-10-31T12:18:59;75995.69;;;-142.83;60.13
9129;BME280;4599;50.906;6.786;2022-10-31T12:23:11;75997.75;;;-142.83;60.37
9129;BME280;4599;50.906;6.786;2022-10-31T12:27:24;75987.38;;;-142.83;60.33
9129;BME280;4599;50.906;6.786;2022-10-31T12:31:41;75966.63;;;-142.83;59.50
9129;BME280;4599;50.906;6.786;2022-10-31T12:35:50;75958.31;;;-142.83;59.89
9129;BME280;4599;50.906;6.786;2022-10-31T12:40:03;75970.78;;;-142.83;60.37
9129;BME280;4599;50.906;6.786;2022-10-31T12:44:25;75950.00;;;-142.83;60.20
9129;BME280;4599;50.906;6.786;2022-10-31T12:48:49;75947.94;;;-142.83;60.48
9129;BME280;4599;50.906;6.786;2022-10-31T12:53:07;75947.94;;;-142.83;60.68
9129;BME280;4599;50.906;6.786;2022-10-31T12:57:18;75958.31;;;-142.83;60.51
9129;BME280;4599;50.906;6.786;2022-10-31T13:01:25;75923.03;;;-142.83;61.01
9129;BME280;4599;50.906;6.786;2022-10-31T13:05:30;75920.94;;;-142.83;60.90
9129;BME280;4599;50.906;6.786;2022-10-31T13:09:38;75896.03;;;-142.83;60.50
9129;BME280;4599;50.906;6.786;2022-10-31T13:13:47;75893.97;;;-142.83;60.87
9129;BME280;4599;50.906;6.786;2022-10-31T13:17:54;75891.88;;;-142.83;61.52
9129;BME280;4599;50.906;6.786;2022-10-31T13:22:01;75887.72;;;-142.83;62.32
9129;BME280;4599;50.906;6.786;2022-10-31T13:26:08;75875.28;;;-142.83;61.50
9129;BME280;4599;50.906;6.786;2022-10-31T13:30:15;75889.81;;;-142.83;61.42
9129;BME280;4599;50.906;6.786;2022-10-31T13:34:23;75875.28;;;-142.83;60.68
9129;BME280;4599;50.906;6.786;2022-10-31T13:38:32;75879.44;;;-142.83;61.27
9129;BME280;4599;50.906;6.786;2022-10-31T13:42:44;75887.72;;;-142.83;61.60
9129;BME280;4599;50.906;6.786;2022-10-31T13:46:53;75879.44;;;-142.83;60.78
9129;BME280;4599;50.906;6.786;2022-10-31T13:50:56;75852.44;;;-142.83;60.34
9129;BME280;4599;50.906;6.786;2022-10-31T13:54:58;75860.75;;;-142.83;59.88
9129;BME280;4599;50.906;6.786;2022-10-31T13:59:15;75858.66;;;-142.83;59.72
9129;BME280;4599;50.906;6.786;2022-10-31T14:03:19;75842.06;;;-142.83;59.65
9129;BME280;4599;50.906;6.786;2022-10-31T14:07:42;75840.00;;;-142.83;59.89
9129;BME280;4599;50.906;6.786;2022-10-31T14:11:45;75831.69;;;-142.83;59.74
9129;BME280;4599;50.906;6.786;2022-10-31T14:15:54;75821.31;;;-142.83;59.83
9129;BME280;4599;50.906;6.786;2022-10-31T14:19:59;75813.00;;;-142.83;60.03
9129;BME280;4599;50.906;6.786;2022-10-31T14:24:01;75813.00;;;-142.83;59.67
9129;BME280;4599;50.906;6.786;2022-10-31T14:28:22;75806.78;;;-142.83;59.07
9129;BME280;4599;50.906;6.786;2022-10-31T14:32:32;75798.47;;;-142.83;58.97
9129;BME280;4599;50.906;6.786;2022-10-31T14:36:40;75806.78;;;-142.83;59.16
9129;BME280;4599;50.906;6.786;2022-10-31T14:40:58;75786.00;;;-142.83;58.61
9129;BME280;4599;50.906;6.786;2022-10-31T14:45:20;75792.25;;;-142.83;58.66
9129;BME280;4599;50.906;6.786;2022-10-31T14:49:36;75779.78;;;-142.83;58.74
9129;BME280;4599;50.906;6.786;2022-10-31T14:53:46;75790.16;;;-142.83;58.33
9129;BME280;4599;50.906;6.786;2022-10-31T14:57:51;75767.34;;;-142.83;58.40
9129;BME280;4599;50.906;6.786;2022-10-31T15:01:56;75767.34;;;-142.83;58.50
9129;BME280;4599;50.906;6.786;2022-10-31T15:06:02;75767.34;;;-142.83;58.58
9129;BME280;4599;50.906;6.786;2022-10-31T15:10:20;75759.03;;;-142.83;58.33
9129;BME280;4599;50.906;6.786;2022-10-31T15:14:24;75754.88;;;-142.83;58.12
9129;BME280;4599;50.906;6.786;2022-10-31T15:18:27;75767.34;;;-142.83;58.49
9129;BME280;4599;50.906;6.786;2022-10-31T15:22:30;75763.19;;;-142.83;58.38
9129;BME280;4599;50.906;6.786;2022-10-31T15:26:38;75763.19;;;-142.83;58.82
9129;BME280;4599;50.906;6.786;2022-10-31T15:30:49;75763.19;;;-142.83;58.47
9129;BME280;4599;50.906;6.786;2022-10-31T15:34:52;75754.88;;;-142.83;58.67
9129;BME280;4599;50.906;6.786;2022-10-31T15:38:55;75754.88;;;-142.83;58.70
9129;BME280;4599;50.906;6.786;2022-10-31T15:43:00;75756.94;;;-142.83;58.73
9129;BME280;4599;50.906;6.786;2022-10-31T15:47:04;75761.09;;;-142.83;58.70
9129;BME280;4599;50.906;6.786;2022-10-31T15:51:06;75763.19;;;-142.83;58.71
9129;BME280;4599;50.906;6.786;2022-10-31T15:55:18;75775.63;;;-142.83;58.80
9129;BME280;4599;50.906;6.786;2022-10-31T15:59:23;75765.25;;;-142.83;59.20
9129;BME280;4599;50.906;6.786;2022-10-31T16:03:28;75777.72;;;-142.83;59.51
9129;BME280;4599;50.906;6.786;2022-10-31T16:07:30;75777.72;;;-142.83;59.70
9129;BME280;4599;50.906;6.786;2022-10-31T16:11:34;75790.16;;;-142.83;59.55
9129;BME280;4599;50.906;6.786;2022-10-31T16:15:47;75796.41;;;-142.83;59.94
9129;BME280;4599;50.906;6.786;2022-10-31T16:19:52;75796.41;;;-142.83;60.18
9129;BME280;4599;50.906;6.786;2022-10-31T16:23:58;75802.63;;;-142.83;60.01
9129;BME280;4599;50.906;6.786;2022-10-31T16:28:16;75813.00;;;-142.83;60.54
9129;BME280;4599;50.906;6.786;2022-10-31T16:32:33;75792.25;;;-142.83;60.35
9129;BME280;4599;50.906;6.786;2022-10-31T16:36:35;75798.47;;;-142.83;60.29
9129;BME280;4599;50.906;6.786;2022-10-31T16:40:38;75788.09;;;-142.83;59.91
9129;BME280;4599;50.906;6.786;2022-10-31T16:44:40;75792.25;;;-142.83;60.24
9129;BME280;4599;50.906;6.786;2022-10-31T16:48:46;75796.41;;;-142.83;60.23
9129;BME280;4599;50.906;6.786;2022-10-31T16:52:48;75794.31;;;-142.83;59.89
9129;BME280;4599;50.906;6.786;2022-10-31T16:57:14;75798.47;;;-142.83;60.24
9129;BME280;4599;50.906;6.786;2022-10-31T17:01:17;75808.84;;;-142.83;60.17
9129;BME280;4599;50.906;6.786;2022-10-31T17:05:22;75810.94;;;-142.83;60.51
9129;BME280;4599;50.906;6.786;2022-10-31T17:09:23;75821.31;;;-142.83;60.72
9129;BME280;4599;50.906;6.786;2022-10-31T17:13:28;75829.59;;;-142.83;60.63
9129;BME280;4599;50.906;6.786;2022-10-31T17:17:30;75829.59;;;-142.83;60.79
9129;BME280;4599;50.906;6.786;2022-10-31T17:21:33;75833.75;;;-142.83;60.93
9129;BME280;4599;50.906;6.786;2022-10-31T17:25:36;75844.13;;;-142.83;61.00
9129;BME280;4599;50.906;6.786;2022-10-31T17:29:38;75833.75;;;-142.83;60.62
9129;BME280;4599;50.906;6.786;2022-10-31T17:33:39;75831.69;;;-142.83;60.64
9129;BME280;4599;50.906;6.786;2022-10-31T17:37:43;75837.91;;;-142.83;60.88
9129;BME280;4599;50.906;6.786;2022-10-31T17:41:45;75844.13;;;-142.83;61.00
9129;BME280;4599;50.906;6.786;2022-10-31T17:45:50;75858.66;;;-142.83;61.27
9129;BME280;4599;50.906;6.786;2022-10-31T17:49:52;75852.44;;;-142.83;60.94
9129;BME280;4599;50.906;6.786;2022-10-31T17:53:55;75856.59;;;-142.83;61.46
9129;BME280;4599;50.906;6.786;2022-10-31T17:57:57;75842.06;;;-142.83;61.01
9129;BME280;4599;50.906;6.786;2022-10-31T18:01:59;75837.91;;;-142.83;60.87
9129;BME280;4599;50.906;6.786;2022-10-31T18:06:01;75842.06;;;-142.83;60.99
9129;BME280;4599;50.906;6.786;2022-10-31T18:10:05;75850.38;;;-142.83;61.24
9129;BME280;4599;50.906;6.786;2022-10-31T18:14:08;75858.66;;;-142.83;61.53
9129;BME280;4599;50.906;6.786;2022-10-31T18:18:09;75848.28;;;-142.83;61.66
9129;BME280;4599;50.906;6.786;2022-10-31T18:22:11;75858.66;;;-142.83;61.71
9129;BME280;4599;50.906;6.786;2022-10-31T18:26:14;75862.81;;;-142.83;61.96
9129;BME280;4599;50.906;6.786;2022-10-31T18:30:15;75875.28;;;-142.83;62.42
9129;BME280;4599;50.906;6.786;2022-10-31T18:34:17;75879.44;;;-142.83;62.57
9129;BME280;4599;50.906;6.786;2022-10-31T18:38:19;75898.13;;;-142.83;62.95
9129;BME280;4599;50.906;6.786;2022-10-31T18:42:22;75898.13;;;-142.83;63.37
9129;BME280;4599;50.906;6.786;2022-10-31T18:46:23;75902.28;;;-142.83;63.52
9129;BME280;4599;50.906;6.786;2022-10-31T18:50:25;75900.19;;;-142.83;63.52
9129;BME280;4599;50.906;6.786;2022-10-31T18:54:26;75891.88;;;-142.83;63.56
9129;BME280;4599;50.906;6.786;2022-10-31T18:58:31;75896.03;;;-142.83;63.89
9129;BME280;4599;50.906;6.786;2022-10-31T19:02:32;75896.03;;;-142.83;64.07
9129;BME280;4599;50.906;6.786;2022-10-31T19:06:34;75906.41;;;-142.83;64.27
9129;BME280;4599;50.906;6.786;2022-10-31T19:10:36;75910.56;;;-142.83;64.65
9129;BME280;4599;50.906;6.786;2022-10-31T19:14:39;75918.88;;;-142.83;64.68
9129;BME280;4599;50.906;6.786;2022-10-31T19:18:41;75929.25;;;-142.83;65.23
9129;BME280;4599;50.906;6.786;2022-10-31T19:22:43;75935.47;;;-142.83;65.33
9129;BME280;4599;50.906;6.786;2022-10-31T19:26:45;75923.03;;;-142.83;65.36
9129;BME280;4599;50.906;6.786;2022-10-31T19:30:52;75929.25;;;-142.83;65.64
9129;BME280;4599;50.906;6.786;2022-10-31T19:34:54;75918.88;;;-142.83;65.21
9129;BME280;4599;50.906;6.786;2022-10-31T19:38:56;75912.66;;;-142.83;65.23
9129;BME280;4599;50.906;6.786;2022-10-31T19:42:57;75918.88;;;-142.83;65.31
9129;BME280;4599;50.906;6.786;2022-10-31T19:47:00;75914.72;;;-142.83;65.24
9129;BME280;4599;50.906;6.786;2022-10-31T19:51:03;75916.81;;;-142.83;65.24
9129;BME280;4599;50.906;6.786;2022-10-31T19:55:06;75918.88;;;-142.83;65.13
9129;BME280;4599;50.906;6.786;2022-10-31T19:59:07;75918.88;;;-142.83;64.76
9129;BME280;4599;50.906;6.786;2022-10-31T20:03:10;75927.19;;;-142.83;65.19
9129;BME280;4599;50.906;6.786;2022-10-31T20:07:12;75937.56;;;-142.83;65.21
9129;BME280;4599;50.906;6.786;2022-10-31T20:11:14;75906.41;;;-142.83;65.15
9129;BME280;4599;50.906;6.786;2022-10-31T20:15:16;75918.88;;;-142.83;65.13
9129;BME280;4599;50.906;6.786;2022-10-31T20:19:19;75920.94;;;-142.83;65.32
9129;BME280;4599;50.906;6.786;2022-10-31T20:23:20;75925.09;;;-142.83;65.68
9129;BME280;4599;50.906;6.786;2022-10-31T20:27:22;75931.34;;;-142.83;66.08
9129;BME280;4599;50.906;6.786;2022-10-31T20:31:25;75927.19;;;-142.83;65.93
9129;BME280;4599;50.906;6.786;2022-10-31T20:35:29;75933.41;;;-142.83;66.25
9129;BME280;4599;50.906;6.786;2022-10-31T20:39:30;75910.56;;;-142.83;65.94
9129;BME280;4599;50.906;6.786;2022-10-31T20:43:32;75935.47;;;-142.83;66.22
9129;BME280;4599;50.906;6.786;2022-10-31T20:47:34;75910.56;;;-142.83;65.98
9129;BME280;4599;50.906;6.786;2022-10-31T20:51:37;75937.56;;;-142.83;66.57
9129;BME280;4599;50.906;6.786;2022-10-31T20:55:39;75929.25;;;-142.83;66.50
9129;BME280;4599;50.906;6.786;2022-10-31T20:59:40;75941.72;;;-142.83;66.67
9129;BME280;4599;50.906;6.786;2022-10-31T21:03:43;75927.19;;;-142.83;66.03
9129;BME280;4599;50.906;6.786;2022-10-31T21:07:46;75908.50;;;-142.83;65.79
9129;BME280;4599;50.906;6.786;2022-10-31T21:11:47;75881.50;;;-142.83;65.11
9129;BME280;4599;50.906;6.786;2022-10-31T21:15:58;75914.72;;;-142.83;65.82
9129;BME280;4599;50.906;6.786;2022-10-31T21:19:59;75929.25;;;-142.83;66.78
9129;BME280;4599;50.906;6.786;2022-10-31T21:24:04;75941.72;;;-142.83;67.43
9129;BME280;4599;50.906;6.786;2022-10-31T21:28:07;75918.88;;;-142.83;66.96
9129;BME280;4599;50.906;6.786;2022-10-31T21:32:08;75937.56;;;-142.83;67.33
9129;BME280;4599;50.906;6.786;2022-10-31T21:36:11;75939.63;;;-142.83;67.54